sensor_id;sensor_type;location;lat;lon;timestamp;pressure;altitude;pressure_sealevel;temperature;humidity
19783;BME280;10051;40.294;-3.754;2023-08-07T00:00:13;94287.16;;;26.36;25.79
19783;BME280;10051;40.294;-3.754;2023-08-07T00:02:39;94335.84;;;26.72;25.62
19783;BME280;10051;40.294;-3.754;2023-08-07T00:05:05;94319.94;;;26.46;25.90
19783;BME280;10051;40.294;-3.754;2023-08-07T00:07:31;94333.41;;;26.46;26.18
19783;BME280;10051;40.294;-3.754;2023-08-07T00:09:57;94347.69;;;26.53;26.22
19783;BME280;10051;40.294;-3.754;2023-08-07T00:12:22;94267.06;;;26.23;26.07
19783;BME280;10051;40.294;-3.754;2023-08-07T00:14:50;94294.91;;;26.45;26.17
19783;BME280;10051;40.294;-3.754;2023-08-07T00:17:16;94328.91;;;26.71;25.92
19783;BME280;10051;40.294;-3.754;2023-08-07T00:19:41;94331.94;;;26.59;26.07
19783;BME280;10051;40.294;-3.754;2023-08-07T00:22:07;94338.94;;;26.71;25.90
19783;BME280;10051;40.294;-3.754;2023-08-07T00:24:32;94347.47;;;26.13;26.69
19783;BME280;10051;40.294;-3.754;2023-08-07T00:26:58;94319.75;;;25.68;27.53
19783;BME280;10051;40.294;-3.754;2023-08-07T00:29:24;94288.13;;;25.58;27.37
19783;BME280;10051;40.294;-3.754;2023-08-07T00:31:49;94306.22;;;25.57;27.68
19783;BME280;10051;40.294;-3.754;2023-08-07T00:34:15;94347.50;;;25.76;27.86
19783;BME280;10051;40.294;-3.754;2023-08-07T00:36:41;94346.94;;;25.56;28.29
19783;BME280;10051;40.294;-3.754;2023-08-07T00:39:06;94342.63;;;25.44;28.55
19783;BME280;10051;40.294;-3.754;2023-08-07T00:41:33;94342.63;;;25.47;28.29
19783;BME280;10051;40.294;-3.754;2023-08-07T00:43:58;94344.66;;;25.58;28.16
19783;BME280;10051;40.294;-3.754;2023-08-07T00:46:24;94340.47;;;25.60;28.22
19783;BME280;10051;40.294;-3.754;2023-08-07T00:48:51;94297.00;;;25.20;28.40
19783;BME280;10051;40.294;-3.754;2023-08-07T00:51:17;94341.75;;;25.36;28.67
19783;BME280;10051;40.294;-3.754;2023-08-07T00:53:43;94310.94;;;24.95;29.07
19783;BME280;10051;40.294;-3.754;2023-08-07T00:56:09;94309.75;;;24.89;29.21
19783;BME280;10051;40.294;-3.754;2023-08-07T00:58:34;94342.22;;;25.07;29.45
19783;BME280;10051;40.294;-3.754;2023-08-07T01:01:01;94310.88;;;24.88;29.42
19783;BME280;10051;40.294;-3.754;2023-08-07T01:03:27;94334.41;;;24.99;29.41
19783;BME280;10051;40.294;-3.754;2023-08-07T01:05:53;94332.63;;;24.76;29.94
19783;BME280;10051;40.294;-3.754;2023-08-07T01:08:19;94284.84;;;24.35;29.87
19783;BME280;10051;40.294;-3.754;2023-08-07T01:10:58;94349.31;;;24.62;30.18
19783;BME280;10051;40.294;-3.754;2023-08-07T01:13:33;94329.19;;;24.52;30.14
19783;BME280;10051;40.294;-3.754;2023-08-07T01:16:05;94323.09;;;24.55;30.12
19783;BME280;10051;40.294;-3.754;2023-08-07T01:18:34;94351.41;;;24.72;30.05
19783;BME280;10051;40.294;-3.754;2023-08-07T01:21:02;94348.22;;;24.67;30.08
19783;BME280;10051;40.294;-3.754;2023-08-07T01:23:28;94327.81;;;24.35;30.47
19783;BME280;10051;40.294;-3.754;2023-08-07T01:25:54;94362.84;;;24.42;30.38
19783;BME280;10051;40.294;-3.754;2023-08-07T01:28:27;94365.09;;;24.37;30.68
19783;BME280;10051;40.294;-3.754;2023-08-07T01:30:59;94372.38;;;24.09;31.29
19783;BME280;10051;40.294;-3.754;2023-08-07T01:33:34;94371.47;;;24.01;31.12
19783;BME280;10051;40.294;-3.754;2023-08-07T01:36:05;94353.13;;;23.84;31.18
19783;BME280;10051;40.294;-3.754;2023-08-07T01:38:32;94379.16;;;24.03;31.08
19783;BME280;10051;40.294;-3.754;2023-08-07T01:41:00;94366.72;;;23.95;31.26
19783;BME280;10051;40.294;-3.754;2023-08-07T01:43:26;94369.72;;;23.89;31.46
19783;BME280;10051;40.294;-3.754;2023-08-07T01:45:52;94367.41;;;23.88;31.52
19783;BME280;10051;40.294;-3.754;2023-08-07T01:48:17;94311.00;;;23.61;31.39
19783;BME280;10051;40.294;-3.754;2023-08-07T01:50:43;94347.34;;;23.82;31.58
19783;BME280;10051;40.294;-3.754;2023-08-07T01:53:09;94347.34;;;23.82;31.65
19783;BME280;10051;40.294;-3.754;2023-08-07T01:55:34;94347.31;;;24.01;31.01
19783;BME280;10051;40.294;-3.754;2023-08-07T01:58:02;94348.00;;;24.22;31.08
19783;BME280;10051;40.294;-3.754;2023-08-07T02:00:28;94248.06;;;23.58;30.64
19783;BME280;10051;40.294;-3.754;2023-08-07T02:02:53;94335.88;;;24.35;30.39
19783;BME280;10051;40.294;-3.754;2023-08-07T02:05:19;94362.75;;;24.62;30.34
19783;BME280;10051;40.294;-3.754;2023-08-07T02:07:46;94360.06;;;24.62;30.20
19783;BME280;10051;40.294;-3.754;2023-08-07T02:10:11;94284.28;;;24.22;30.21
19783;BME280;10051;40.294;-3.754;2023-08-07T02:12:37;94306.03;;;24.40;30.36
19783;BME280;10051;40.294;-3.754;2023-08-07T02:15:02;94338.72;;;24.73;29.78
19783;BME280;10051;40.294;-3.754;2023-08-07T02:17:28;94352.56;;;24.75;30.15
19783;BME280;10051;40.294;-3.754;2023-08-07T02:19:57;94354.72;;;24.65;30.32
19783;BME280;10051;40.294;-3.754;2023-08-07T02:22:22;94304.66;;;24.23;30.53
19783;BME280;10051;40.294;-3.754;2023-08-07T02:24:48;94349.66;;;24.60;30.37
19783;BME280;10051;40.294;-3.754;2023-08-07T02:27:14;94348.59;;;24.65;30.27
19783;BME280;10051;40.294;-3.754;2023-08-07T02:29:39;94336.31;;;24.68;30.06
19783;BME280;10051;40.294;-3.754;2023-08-07T02:32:05;94348.78;;;24.79;29.98
19783;BME280;10051;40.294;-3.754;2023-08-07T02:34:31;94347.81;;;24.64;30.20
19783;BME280;10051;40.294;-3.754;2023-08-07T02:36:57;94361.41;;;24.48;30.67
19783;BME280;10051;40.294;-3.754;2023-08-07T02:39:23;94348.19;;;24.36;30.55
19783;BME280;10051;40.294;-3.754;2023-08-07T02:41:49;94327.66;;;23.97;30.87
19783;BME280;10051;40.294;-3.754;2023-08-07T02:44:14;94351.13;;;24.00;31.25
19783;BME280;10051;40.294;-3.754;2023-08-07T02:46:39;94304.66;;;23.50;31.70
19783;BME280;10051;40.294;-3.754;2023-08-07T02:49:05;94302.41;;;23.52;31.70
19783;BME280;10051;40.294;-3.754;2023-08-07T02:51:32;94310.13;;;23.80;31.64
19783;BME280;10051;40.294;-3.754;2023-08-07T02:53:57;94289.53;;;23.61;31.45
19783;BME280;10051;40.294;-3.754;2023-08-07T02:56:26;94318.84;;;23.73;31.49
19783;BME280;10051;40.294;-3.754;2023-08-07T02:58:52;94298.06;;;23.70;31.14
19783;BME280;10051;40.294;-3.754;2023-08-07T03:01:17;94338.13;;;24.02;31.11
19783;BME280;10051;40.294;-3.754;2023-08-07T03:03:43;94349.44;;;24.15;31.14
19783;BME280;10051;40.294;-3.754;2023-08-07T03:06:08;94350.84;;;24.05;31.68
19783;BME280;10051;40.294;-3.754;2023-08-07T03:08:34;94330.47;;;23.81;31.16
19783;BME280;10051;40.294;-3.754;2023-08-07T03:10:59;94330.69;;;23.72;31.32
19783;BME280;10051;40.294;-3.754;2023-08-07T03:13:25;94326.13;;;23.73;31.59
19783;BME280;10051;40.294;-3.754;2023-08-07T03:15:59;94327.31;;;23.75;31.69
19783;BME280;10051;40.294;-3.754;2023-08-07T03:18:28;94353.25;;;23.91;31.96
19783;BME280;10051;40.294;-3.754;2023-08-07T03:20:57;94348.31;;;23.93;31.43
19783;BME280;10051;40.294;-3.754;2023-08-07T03:23:24;94342.97;;;23.97;31.36
19783;BME280;10051;40.294;-3.754;2023-08-07T03:25:51;94354.69;;;24.08;31.79
19783;BME280;10051;40.294;-3.754;2023-08-07T03:28:26;94355.00;;;24.03;31.55
19783;BME280;10051;40.294;-3.754;2023-08-07T03:30:52;94346.97;;;24.06;31.43
19783;BME280;10051;40.294;-3.754;2023-08-07T03:33:17;94352.56;;;24.21;30.94
19783;BME280;10051;40.294;-3.754;2023-08-07T03:35:43;94357.50;;;24.15;31.17
19783;BME280;10051;40.294;-3.754;2023-08-07T03:38:08;94358.22;;;24.12;31.39
19783;BME280;10051;40.294;-3.754;2023-08-07T03:40:34;94357.44;;;24.39;30.97
19783;BME280;10051;40.294;-3.754;2023-08-07T03:43:00;94354.38;;;24.40;30.80
19783;BME280;10051;40.294;-3.754;2023-08-07T03:45:25;94316.41;;;24.15;30.51
19783;BME280;10051;40.294;-3.754;2023-08-07T03:47:51;94353.00;;;24.50;30.79
19783;BME280;10051;40.294;-3.754;2023-08-07T03:50:16;94298.44;;;24.19;30.68
19783;BME280;10051;40.294;-3.754;2023-08-07T03:52:42;94346.75;;;24.42;31.08
19783;BME280;10051;40.294;-3.754;2023-08-07T03:55:08;94356.00;;;24.45;31.10
19783;BME280;10051;40.294;-3.754;2023-08-07T03:57:33;94361.38;;;24.45;31.02
19783;BME280;10051;40.294;-3.754;2023-08-07T03:59:59;94359.81;;;24.44;30.68
19783;BME280;10051;40.294;-3.754;2023-08-07T04:02:24;94360.78;;;24.32;30.97
19783;BME280;10051;40.294;-3.754;2023-08-07T04:04:50;94304.63;;;23.96;30.98
19783;BME280;10051;40.294;-3.754;2023-08-07T04:07:19;94342.44;;;24.11;31.19
19783;BME280;10051;40.294;-3.754;2023-08-07T04:09:44;94344.72;;;24.09;31.16
19783;BME280;10051;40.294;-3.754;2023-08-07T04:12:10;94361.78;;;24.20;31.15
19783;BME280;10051;40.294;-3.754;2023-08-07T04:14:35;94365.75;;;24.30;31.14
19783;BME280;10051;40.294;-3.754;2023-08-07T04:17:01;94347.22;;;24.21;30.59
19783;BME280;10051;40.294;-3.754;2023-08-07T04:19:27;94360.94;;;24.16;30.92
19783;BME280;10051;40.294;-3.754;2023-08-07T04:21:53;94364.13;;;24.22;30.69
19783;BME280;10051;40.294;-3.754;2023-08-07T04:24:18;94298.91;;;23.74;30.93
19783;BME280;10051;40.294;-3.754;2023-08-07T04:26:44;94340.75;;;23.99;31.19
19783;BME280;10051;40.294;-3.754;2023-08-07T04:29:09;94353.53;;;24.05;30.99
19783;BME280;10051;40.294;-3.754;2023-08-07T04:31:35;94298.69;;;23.60;30.83
19783;BME280;10051;40.294;-3.754;2023-08-07T04:34:01;94315.72;;;23.71;30.80
19783;BME280;10051;40.294;-3.754;2023-08-07T04:36:26;94362.28;;;24.02;30.49
19783;BME280;10051;40.294;-3.754;2023-08-07T04:38:52;94360.31;;;23.99;30.32
19783;BME280;10051;40.294;-3.754;2023-08-07T04:41:17;94338.28;;;23.90;29.90
19783;BME280;10051;40.294;-3.754;2023-08-07T04:43:44;94283.53;;;23.48;30.13
19783;BME280;10051;40.294;-3.754;2023-08-07T04:46:09;94370.13;;;23.91;29.78
19783;BME280;10051;40.294;-3.754;2023-08-07T04:48:36;94339.88;;;23.71;29.53
19783;BME280;10051;40.294;-3.754;2023-08-07T04:51:01;94311.16;;;23.49;29.40
19783;BME280;10051;40.294;-3.754;2023-08-07T04:53:27;94372.75;;;23.65;29.57
19783;BME280;10051;40.294;-3.754;2023-08-07T04:55:53;94379.31;;;23.67;29.64
19783;BME280;10051;40.294;-3.754;2023-08-07T04:58:18;94383.25;;;23.73;29.09
19783;BME280;10051;40.294;-3.754;2023-08-07T05:00:44;94339.47;;;23.46;29.18
19783;BME280;10051;40.294;-3.754;2023-08-07T05:03:09;94363.34;;;23.74;28.85
19783;BME280;10051;40.294;-3.754;2023-08-07T05:05:35;94386.00;;;23.54;29.45
19783;BME280;10051;40.294;-3.754;2023-08-07T05:08:01;94382.69;;;23.41;29.06
19783;BME280;10051;40.294;-3.754;2023-08-07T05:10:27;94378.88;;;23.42;28.86
19783;BME280;10051;40.294;-3.754;2023-08-07T05:12:52;94377.41;;;23.44;28.50
19783;BME280;10051;40.294;-3.754;2023-08-07T05:15:24;94373.50;;;23.42;28.45
19783;BME280;10051;40.294;-3.754;2023-08-07T05:17:50;94383.66;;;23.52;28.23
19783;BME280;10051;40.294;-3.754;2023-08-07T05:20:17;94385.28;;;23.57;28.04
19783;BME280;10051;40.294;-3.754;2023-08-07T05:22:43;94365.41;;;23.38;27.75
19783;BME280;10051;40.294;-3.754;2023-08-07T05:25:09;94391.81;;;23.36;28.06
19783;BME280;10051;40.294;-3.754;2023-08-07T05:27:35;94389.69;;;23.26;27.92
19783;BME280;10051;40.294;-3.754;2023-08-07T05:30:00;94385.72;;;23.39;27.61
19783;BME280;10051;40.294;-3.754;2023-08-07T05:32:26;94336.47;;;23.08;27.44
19783;BME280;10051;40.294;-3.754;2023-08-07T05:34:52;94395.88;;;23.50;27.44
19783;BME280;10051;40.294;-3.754;2023-08-07T05:37:17;94387.88;;;23.53;26.90
19783;BME280;10051;40.294;-3.754;2023-08-07T05:39:43;94381.53;;;23.61;26.73
19783;BME280;10051;40.294;-3.754;2023-08-07T05:42:09;94362.56;;;23.31;26.44
19783;BME280;10051;40.294;-3.754;2023-08-07T05:44:35;94391.66;;;23.49;26.60
19783;BME280;10051;40.294;-3.754;2023-08-07T05:47:01;94377.13;;;23.30;26.19
19783;BME280;10051;40.294;-3.754;2023-08-07T05:49:26;94398.78;;;23.41;26.36
19783;BME280;10051;40.294;-3.754;2023-08-07T05:51:53;94350.03;;;23.15;26.45
19783;BME280;10051;40.294;-3.754;2023-08-07T05:54:18;94395.59;;;23.55;26.29
19783;BME280;10051;40.294;-3.754;2023-08-07T05:56:44;94381.09;;;23.59;25.89
19783;BME280;10051;40.294;-3.754;2023-08-07T05:59:09;94390.38;;;24.09;25.33
19783;BME280;10051;40.294;-3.754;2023-08-07T06:01:35;94407.41;;;26.07;22.90
19783;BME280;10051;40.294;-3.754;2023-08-07T06:04:02;94340.78;;;26.00;22.27
19783;BME280;10051;40.294;-3.754;2023-08-07T06:06:27;94412.44;;;26.08;22.56
19783;BME280;10051;40.294;-3.754;2023-08-07T06:08:56;94353.97;;;25.30;23.04
19783;BME280;10051;40.294;-3.754;2023-08-07T06:11:21;94390.75;;;25.18;23.35
19783;BME280;10051;40.294;-3.754;2023-08-07T06:13:48;94383.22;;;25.01;23.16
19783;BME280;10051;40.294;-3.754;2023-08-07T06:16:13;94413.28;;;24.76;23.55
19783;BME280;10051;40.294;-3.754;2023-08-07T06:18:39;94372.75;;;24.34;23.74
19783;BME280;10051;40.294;-3.754;2023-08-07T06:21:04;94361.16;;;24.30;24.25
19783;BME280;10051;40.294;-3.754;2023-08-07T06:23:33;94422.69;;;24.89;23.61
19783;BME280;10051;40.294;-3.754;2023-08-07T06:25:58;94416.00;;;25.10;23.33
19783;BME280;10051;40.294;-3.754;2023-08-07T06:28:24;94426.44;;;25.15;23.06
19783;BME280;10051;40.294;-3.754;2023-08-07T06:30:49;94416.97;;;24.94;23.62
19783;BME280;10051;40.294;-3.754;2023-08-07T06:33:15;94409.91;;;24.83;23.41
19783;BME280;10051;40.294;-3.754;2023-08-07T06:35:40;94398.63;;;24.46;23.55
19783;BME280;10051;40.294;-3.754;2023-08-07T06:38:08;94409.53;;;24.30;23.81
19783;BME280;10051;40.294;-3.754;2023-08-07T06:40:37;94342.34;;;24.03;23.44
19783;BME280;10051;40.294;-3.754;2023-08-07T06:43:03;94278.38;;;23.86;23.05
19783;BME280;10051;40.294;-3.754;2023-08-07T06:45:28;94354.84;;;24.73;22.70
19783;BME280;10051;40.294;-3.754;2023-08-07T06:47:54;94449.00;;;25.37;22.61
19783;BME280;10051;40.294;-3.754;2023-08-07T06:50:21;94298.03;;;24.44;22.49
19783;BME280;10051;40.294;-3.754;2023-08-07T06:52:46;94278.72;;;24.08;23.05
19783;BME280;10051;40.294;-3.754;2023-08-07T06:55:12;94317.16;;;24.39;22.74
19783;BME280;10051;40.294;-3.754;2023-08-07T06:57:38;94385.28;;;24.54;23.21
19783;BME280;10051;40.294;-3.754;2023-08-07T07:00:06;94375.22;;;24.20;23.61
19783;BME280;10051;40.294;-3.754;2023-08-07T07:02:32;94294.06;;;23.84;23.65
19783;BME280;10051;40.294;-3.754;2023-08-07T07:04:57;94435.00;;;24.90;23.46
19783;BME280;10051;40.294;-3.754;2023-08-07T07:07:24;94326.81;;;23.93;23.37
19783;BME280;10051;40.294;-3.754;2023-08-07T07:09:49;94386.88;;;24.58;23.76
19783;BME280;10051;40.294;-3.754;2023-08-07T07:12:15;94347.69;;;24.57;22.99
19783;BME280;10051;40.294;-3.754;2023-08-07T07:14:41;94233.91;;;23.88;23.29
19783;BME280;10051;40.294;-3.754;2023-08-07T07:17:06;94332.50;;;24.69;22.86
19783;BME280;10051;40.294;-3.754;2023-08-07T07:19:34;94308.53;;;24.56;23.11
19783;BME280;10051;40.294;-3.754;2023-08-07T07:22:00;94265.50;;;24.22;23.05
19783;BME280;10051;40.294;-3.754;2023-08-07T07:24:25;94445.47;;;25.60;22.63
19783;BME280;10051;40.294;-3.754;2023-08-07T07:26:51;94451.94;;;25.56;23.05
19783;BME280;10051;40.294;-3.754;2023-08-07T07:29:17;94449.09;;;25.79;22.60
19783;BME280;10051;40.294;-3.754;2023-08-07T07:31:44;94356.41;;;25.08;22.73
19783;BME280;10051;40.294;-3.754;2023-08-07T07:34:09;94451.63;;;26.02;22.51
19783;BME280;10051;40.294;-3.754;2023-08-07T07:36:35;94395.25;;;25.79;21.75
19783;BME280;10051;40.294;-3.754;2023-08-07T07:39:00;94323.06;;;25.50;21.15
19783;BME280;10051;40.294;-3.754;2023-08-07T07:41:26;94414.53;;;26.26;21.56
19783;BME280;10051;40.294;-3.754;2023-08-07T07:43:53;94326.00;;;25.79;20.95
19783;BME280;10051;40.294;-3.754;2023-08-07T07:46:18;94329.47;;;25.83;21.04
19783;BME280;10051;40.294;-3.754;2023-08-07T07:48:44;94319.03;;;25.75;21.64
19783;BME280;10051;40.294;-3.754;2023-08-07T07:51:10;94349.59;;;25.97;21.82
19783;BME280;10051;40.294;-3.754;2023-08-07T07:53:35;94362.28;;;25.93;22.10
19783;BME280;10051;40.294;-3.754;2023-08-07T07:56:01;94373.03;;;25.93;22.01
19783;BME280;10051;40.294;-3.754;2023-08-07T07:58:26;94341.88;;;25.92;22.22
19783;BME280;10051;40.294;-3.754;2023-08-07T08:00:52;94331.59;;;26.08;22.00
19783;BME280;10051;40.294;-3.754;2023-08-07T08:03:19;94395.22;;;26.76;22.17
19783;BME280;10051;40.294;-3.754;2023-08-07T08:05:49;94461.72;;;27.17;21.90
19783;BME280;10051;40.294;-3.754;2023-08-07T08:08:15;94461.38;;;27.26;22.13
19783;BME280;10051;40.294;-3.754;2023-08-07T08:10:40;94413.38;;;26.83;22.81
19783;BME280;10051;40.294;-3.754;2023-08-07T08:13:08;94453.94;;;27.01;23.27
19783;BME280;10051;40.294;-3.754;2023-08-07T08:15:34;94453.88;;;26.90;23.97
19783;BME280;10051;40.294;-3.754;2023-08-07T08:18:00;94435.66;;;26.80;23.58
19783;BME280;10051;40.294;-3.754;2023-08-07T08:20:25;94441.66;;;27.14;23.27
19783;BME280;10051;40.294;-3.754;2023-08-07T08:22:51;94447.19;;;27.40;22.85
19783;BME280;10051;40.294;-3.754;2023-08-07T08:25:17;94442.63;;;27.55;22.74
19783;BME280;10051;40.294;-3.754;2023-08-07T08:27:45;94453.06;;;27.71;22.48
19783;BME280;10051;40.294;-3.754;2023-08-07T08:30:11;94397.78;;;27.28;23.37
19783;BME280;10051;40.294;-3.754;2023-08-07T08:32:38;94414.78;;;27.36;24.27
19783;BME280;10051;40.294;-3.754;2023-08-07T08:35:04;94457.31;;;27.72;22.64
19783;BME280;10051;40.294;-3.754;2023-08-07T08:37:31;94426.47;;;27.69;22.18
19783;BME280;10051;40.294;-3.754;2023-08-07T08:39:56;94398.97;;;27.42;24.06
19783;BME280;10051;40.294;-3.754;2023-08-07T08:42:22;94401.91;;;27.00;24.48
19783;BME280;10051;40.294;-3.754;2023-08-07T08:44:52;94438.66;;;27.30;25.09
19783;BME280;10051;40.294;-3.754;2023-08-07T08:47:18;94437.56;;;27.46;24.35
19783;BME280;10051;40.294;-3.754;2023-08-07T08:49:50;94459.66;;;27.73;25.06
19783;BME280;10051;40.294;-3.754;2023-08-07T08:52:16;94440.34;;;27.68;24.78
19783;BME280;10051;40.294;-3.754;2023-08-07T08:54:43;94447.34;;;27.80;25.87
19783;BME280;10051;40.294;-3.754;2023-08-07T08:57:09;94375.44;;;27.39;26.41
19783;BME280;10051;40.294;-3.754;2023-08-07T08:59:36;94391.72;;;27.68;25.69
19783;BME280;10051;40.294;-3.754;2023-08-07T09:02:03;94394.84;;;27.92;24.79
19783;BME280;10051;40.294;-3.754;2023-08-07T09:04:29;94451.28;;;28.40;25.75
19783;BME280;10051;40.294;-3.754;2023-08-07T09:06:54;94424.97;;;28.08;26.25
19783;BME280;10051;40.294;-3.754;2023-08-07T09:09:20;94445.09;;;28.29;26.32
19783;BME280;10051;40.294;-3.754;2023-08-07T09:11:47;94451.25;;;28.44;25.88
19783;BME280;10051;40.294;-3.754;2023-08-07T09:14:20;94423.44;;;28.32;26.58
19783;BME280;10051;40.294;-3.754;2023-08-07T09:16:48;94435.81;;;28.44;26.07
19783;BME280;10051;40.294;-3.754;2023-08-07T09:19:14;94435.81;;;28.70;26.16
19783;BME280;10051;40.294;-3.754;2023-08-07T09:21:39;94438.88;;;28.61;28.63
19783;BME280;10051;40.294;-3.754;2023-08-07T09:24:05;94404.94;;;28.45;28.89
19783;BME280;10051;40.294;-3.754;2023-08-07T09:26:33;94416.88;;;28.33;28.24
19783;BME280;10051;40.294;-3.754;2023-08-07T09:28:59;94445.47;;;28.27;27.81
19783;BME280;10051;40.294;-3.754;2023-08-07T09:31:26;94409.56;;;28.27;27.73
19783;BME280;10051;40.294;-3.754;2023-08-07T09:33:52;94406.06;;;28.48;28.09
19783;BME280;10051;40.294;-3.754;2023-08-07T09:36:18;94443.16;;;28.76;28.11
19783;BME280;10051;40.294;-3.754;2023-08-07T09:38:49;94416.47;;;28.64;27.83
19783;BME280;10051;40.294;-3.754;2023-08-07T09:41:18;94428.47;;;28.48;28.59
19783;BME280;10051;40.294;-3.754;2023-08-07T09:43:44;94438.91;;;28.75;27.73
19783;BME280;10051;40.294;-3.754;2023-08-07T09:46:10;94402.16;;;28.71;27.87
19783;BME280;10051;40.294;-3.754;2023-08-07T09:48:43;94431.09;;;29.10;27.02
19783;BME280;10051;40.294;-3.754;2023-08-07T09:51:10;94454.19;;;29.44;27.34
19783;BME280;10051;40.294;-3.754;2023-08-07T09:53:36;94450.31;;;29.48;27.93
19783;BME280;10051;40.294;-3.754;2023-08-07T09:56:01;94454.94;;;29.48;28.10
19783;BME280;10051;40.294;-3.754;2023-08-07T09:58:28;94441.38;;;29.55;27.54
19783;BME280;10051;40.294;-3.754;2023-08-07T10:00:54;94410.78;;;29.58;27.09
19783;BME280;10051;40.294;-3.754;2023-08-07T10:03:25;94421.22;;;29.63;27.03
19783;BME280;10051;40.294;-3.754;2023-08-07T10:05:51;94440.81;;;29.82;27.62
19783;BME280;10051;40.294;-3.754;2023-08-07T10:08:18;94417.81;;;29.45;27.80
19783;BME280;10051;40.294;-3.754;2023-08-07T10:10:44;94437.13;;;29.54;27.51
19783;BME280;10051;40.294;-3.754;2023-08-07T10:13:13;94439.44;;;29.56;28.59
19783;BME280;10051;40.294;-3.754;2023-08-07T10:15:39;94434.69;;;29.78;28.57
19783;BME280;10051;40.294;-3.754;2023-08-07T10:18:07;94407.63;;;29.71;27.82
19783;BME280;10051;40.294;-3.754;2023-08-07T10:20:33;94410.34;;;29.71;28.09
19783;BME280;10051;40.294;-3.754;2023-08-07T10:23:09;94422.19;;;29.91;28.20
19783;BME280;10051;40.294;-3.754;2023-08-07T10:25:40;94382.34;;;29.88;27.44
19783;BME280;10051;40.294;-3.754;2023-08-07T10:28:09;94420.34;;;30.37;27.14
19783;BME280;10051;40.294;-3.754;2023-08-07T10:30:36;94370.63;;;30.06;27.51
19783;BME280;10051;40.294;-3.754;2023-08-07T10:33:04;94403.16;;;30.51;27.18
19783;BME280;10051;40.294;-3.754;2023-08-07T10:35:32;94419.19;;;30.80;26.13
19783;BME280;10051;40.294;-3.754;2023-08-07T10:38:08;94411.31;;;30.51;26.12
19783;BME280;10051;40.294;-3.754;2023-08-07T10:41:09;94415.91;;;30.58;27.83
19783;BME280;10051;40.294;-3.754;2023-08-07T10:43:43;94410.75;;;30.71;28.37
19783;BME280;10051;40.294;-3.754;2023-08-07T10:46:20;94420.44;;;30.72;28.57
19783;BME280;10051;40.294;-3.754;2023-08-07T10:48:53;94387.69;;;30.48;29.06
19783;BME280;10051;40.294;-3.754;2023-08-07T10:51:20;94399.28;;;30.52;27.62
19783;BME280;10051;40.294;-3.754;2023-08-07T10:53:49;94418.50;;;30.69;27.06
19783;BME280;10051;40.294;-3.754;2023-08-07T10:56:19;94385.69;;;30.60;26.73
19783;BME280;10051;40.294;-3.754;2023-08-07T10:58:54;94403.38;;;30.71;27.07
19783;BME280;10051;40.294;-3.754;2023-08-07T11:03:56;94405.47;;;30.95;28.78
19783;BME280;10051;40.294;-3.754;2023-08-07T11:06:35;94404.97;;;31.07;28.13
19783;BME280;10051;40.294;-3.754;2023-08-07T11:09:02;94401.69;;;31.23;28.49
19783;BME280;10051;40.294;-3.754;2023-08-07T11:11:29;94395.97;;;31.45;27.75
19783;BME280;10051;40.294;-3.754;2023-08-07T11:13:55;94396.50;;;31.64;27.60
19783;BME280;10051;40.294;-3.754;2023-08-07T11:16:21;94366.84;;;31.18;29.06
19783;BME280;10051;40.294;-3.754;2023-08-07T11:18:48;94396.19;;;31.27;29.45
19783;BME280;10051;40.294;-3.754;2023-08-07T11:21:14;94394.22;;;31.31;29.46
19783;BME280;10051;40.294;-3.754;2023-08-07T11:23:42;94392.06;;;31.46;29.24
19783;BME280;10051;40.294;-3.754;2023-08-07T11:26:09;94361.91;;;31.40;28.13
19783;BME280;10051;40.294;-3.754;2023-08-07T11:28:35;94380.59;;;31.62;28.03
19783;BME280;10051;40.294;-3.754;2023-08-07T11:31:01;94366.91;;;31.69;26.83
19783;BME280;10051;40.294;-3.754;2023-08-07T11:33:27;94354.44;;;31.76;26.25
19783;BME280;10051;40.294;-3.754;2023-08-07T11:35:53;94313.38;;;31.66;26.36
19783;BME280;10051;40.294;-3.754;2023-08-07T11:38:37;94353.50;;;32.10;27.15
19783;BME280;10051;40.294;-3.754;2023-08-07T11:41:05;94337.38;;;32.23;27.46
19783;BME280;10051;40.294;-3.754;2023-08-07T11:43:32;94350.41;;;32.35;26.74
19783;BME280;10051;40.294;-3.754;2023-08-07T11:46:03;94331.63;;;32.17;25.66
19783;BME280;10051;40.294;-3.754;2023-08-07T11:48:30;94355.16;;;32.51;25.76
19783;BME280;10051;40.294;-3.754;2023-08-07T11:50:57;94361.47;;;32.68;25.59
19783;BME280;10051;40.294;-3.754;2023-08-07T11:53:25;94362.81;;;32.80;25.38
19783;BME280;10051;40.294;-3.754;2023-08-07T11:56:03;94307.81;;;32.69;25.01
19783;BME280;10051;40.294;-3.754;2023-08-07T11:58:40;94328.19;;;33.01;24.63
19783;BME280;10051;40.294;-3.754;2023-08-07T12:01:11;94344.88;;;32.83;24.95
19783;BME280;10051;40.294;-3.754;2023-08-07T12:03:39;94290.22;;;32.53;24.90
19783;BME280;10051;40.294;-3.754;2023-08-07T12:06:05;94260.84;;;32.44;24.66
19783;BME280;10051;40.294;-3.754;2023-08-07T12:08:36;94286.78;;;32.49;25.68
19783;BME280;10051;40.294;-3.754;2023-08-07T12:11:20;94331.69;;;32.81;25.51
19783;BME280;10051;40.294;-3.754;2023-08-07T12:13:49;94332.25;;;32.92;25.64
19783;BME280;10051;40.294;-3.754;2023-08-07T12:16:15;94296.94;;;32.89;25.74
19783;BME280;10051;40.294;-3.754;2023-08-07T12:18:51;94336.19;;;33.28;24.41
19783;BME280;10051;40.294;-3.754;2023-08-07T12:21:18;94315.00;;;33.36;24.60
19783;BME280;10051;40.294;-3.754;2023-08-07T12:23:51;94328.53;;;33.60;24.58
19783;BME280;10051;40.294;-3.754;2023-08-07T12:26:20;94324.00;;;33.70;24.54
19783;BME280;10051;40.294;-3.754;2023-08-07T12:28:45;94313.91;;;33.70;22.98
19783;BME280;10051;40.294;-3.754;2023-08-07T12:31:11;94316.63;;;33.70;21.96
19783;BME280;10051;40.294;-3.754;2023-08-07T12:33:37;94305.78;;;33.66;22.32
19783;BME280;10051;40.294;-3.754;2023-08-07T12:36:03;94315.56;;;33.80;22.48
19783;BME280;10051;40.294;-3.754;2023-08-07T12:38:29;94299.75;;;33.92;22.65
19783;BME280;10051;40.294;-3.754;2023-08-07T12:40:55;94308.94;;;34.15;21.68
19783;BME280;10051;40.294;-3.754;2023-08-07T12:43:21;94275.88;;;33.79;22.11
19783;BME280;10051;40.294;-3.754;2023-08-07T12:45:47;94298.22;;;34.07;22.51
19783;BME280;10051;40.294;-3.754;2023-08-07T12:48:12;94263.63;;;34.04;22.13
19783;BME280;10051;40.294;-3.754;2023-08-07T12:50:38;94271.69;;;34.24;21.61